Time;durP1;ratioP1;P1;durP2;ratioP2;P2;SDS_P1;SDS_P2;PMS_P1;PMS_P2;Temp;Humidity;BMP_temperature;BMP_pressure;BME280_temperature;BME280_humidity;BME280_pressure;Samples;Min_cycle;Max_cycle;Signal;HPM_P1;HPM_P2
2022/10/14 05:00:43;;;;;;;12.40;10.10;;;14.90;97.20;;;;;;1676336;29;20552;-79
2022/10/14 05:01:34;;;;;;;13.27;10.13;;;14.90;97.20;;;;;;1670547;29;20203;-78
2022/10/14 05:02:26;;;;;;;12.90;9.97;;;14.90;97.20;;;;;;1670745;29;20207;-80
2022/10/14 05:03:16;;;;;;;10.75;8.80;;;14.90;97.20;;;;;;1670058;29;20206;-80
2022/10/14 05:04:08;;;;;;;10.30;9.20;;;14.90;97.20;;;;;;1673982;29;20206;-79
2022/10/14 05:04:59;;;;;;;11.98;9.80;;;14.90;97.20;;;;;;1676290;29;20209;-79
2022/10/14 05:05:51;;;;;;;11.18;9.95;;;14.90;97.20;;;;;;1676342;29;20197;-80
2022/10/14 05:06:42;;;;;;;12.95;11.60;;;14.90;97.20;;;;;;1675910;29;20214;-80
2022/10/14 05:07:34;;;;;;;18.80;14.07;;;14.90;97.20;;;;;;1676295;29;20194;-80
2022/10/14 05:08:25;;;;;;;22.73;14.30;;;14.90;97.20;;;;;;1676064;29;20217;-80
2022/10/14 05:09:17;;;;;;;19.53;15.53;;;14.90;97.20;;;;;;1675898;29;20285;-79
2022/10/14 05:10:09;;;;;;;19.85;15.32;;;14.90;97.20;;;;;;1676144;29;20473;-79
2022/10/14 05:11:01;;;;;;;17.90;13.80;;;14.90;97.20;;;;;;1675494;29;20316;-80
2022/10/14 05:11:52;;;;;;;15.45;12.00;;;14.90;97.20;;;;;;1675632;29;20221;-79
2022/10/14 05:12:43;;;;;;;14.17;12.43;;;14.90;97.20;;;;;;1676072;29;20202;-79
2022/10/14 05:13:35;;;;;;;12.15;10.93;;;14.90;97.20;;;;;;1675910;29;20504;-80
2022/10/14 05:14:26;;;;;;;18.30;11.10;;;14.90;97.20;;;;;;1676210;29;20291;-79
2022/10/14 05:15:18;;;;;;;16.15;10.50;;;14.90;97.20;;;;;;1675995;29;20214;-79
2022/10/14 05:16:11;;;;;;;12.65;11.30;;;14.90;97.20;;;;;;1675816;29;20206;-79
2022/10/14 05:17:02;;;;;;;15.30;11.48;;;14.90;97.20;;;;;;1676135;29;20220;-80
2022/10/14 05:17:54;;;;;;;11.73;10.53;;;14.90;97.20;;;;;;1675567;29;20288;-79
2022/10/14 05:18:45;;;;;;;15.88;10.00;;;14.90;97.20;;;;;;1675773;29;20286;-79
2022/10/14 05:19:36;;;;;;;10.30;9.30;;;14.90;97.20;;;;;;1676079;29;20258;-79
2022/10/14 05:20:27;;;;;;;13.10;10.60;;;14.90;97.20;;;;;;1675613;29;20217;-79
2022/10/14 05:21:19;;;;;;;10.77;9.77;;;14.90;97.20;;;;;;1675844;29;20212;-79
2022/10/14 05:22:09;;;;;;;10.85;9.68;;;14.90;97.20;;;;;;1675246;29;20300;-80
2022/10/14 05:23:01;;;;;;;11.97;10.33;;;15.00;97.20;;;;;;1675673;29;20287;-79
2022/10/14 05:23:52;;;;;;;10.43;9.38;;;14.90;97.20;;;;;;1675494;29;20669;-79
2022/10/14 05:24:43;;;;;;;12.57;10.47;;;14.90;97.20;;;;;;1675634;29;20692;-80
2022/10/14 05:25:34;;;;;;;10.50;9.50;;;14.90;97.20;;;;;;1675781;29;20687;-79
2022/10/14 05:26:26;;;;;;;12.80;10.00;;;14.90;97.20;;;;;;1675794;29;20578;-79
2022/10/14 05:27:17;;;;;;;13.50;11.43;;;14.90;97.20;;;;;;1675891;29;20209;-80
2022/10/14 05:28:08;;;;;;;13.07;11.53;;;14.90;97.20;;;;;;1675980;29;20657;-79
2022/10/14 05:28:59;;;;;;;12.43;10.93;;;14.90;97.20;;;;;;1675963;29;20461;-79
2022/10/14 05:29:51;;;;;;;13.33;11.17;;;14.90;97.20;;;;;;1679045;29;20202;-79
2022/10/14 05:30:42;;;;;;;11.77;10.60;;;14.90;97.20;;;;;;1686136;29;20238;-79
2022/10/14 05:31:35;;;;;;;12.97;10.90;;;14.90;97.20;;;;;;1700952;29;20226;-79
2022/10/14 05:32:25;;;;;;;15.15;11.55;;;14.90;97.20;;;;;;1698313;29;20219;-80
2022/10/14 05:33:17;;;;;;;11.63;10.50;;;14.90;97.20;;;;;;1701077;29;20195;-79
2022/10/14 05:34:08;;;;;;;13.30;11.77;;;14.90;97.20;;;;;;1700791;29;20200;-79
2022/10/14 05:34:59;;;;;;;13.33;10.20;;;14.90;97.20;;;;;;1700768;29;20203;-79
2022/10/14 05:35:51;;;;;;;12.25;11.00;;;14.90;97.20;;;;;;1701175;29;20203;-80
2022/10/14 05:36:42;;;;;;;12.35;11.15;;;14.90;97.20;;;;;;1701048;29;20203;-79
2022/10/14 05:37:34;;;;;;;11.60;10.40;;;14.90;97.20;;;;;;1701357;29;20199;-78
2022/10/14 05:38:25;;;;;;;13.27;11.93;;;14.90;97.20;;;;;;1698697;29;20230;-80
2022/10/14 05:39:17;;;;;;;12.70;11.37;;;14.90;97.20;;;;;;1700709;29;20210;-80
2022/10/14 05:40:09;;;;;;;13.18;11.73;;;14.90;97.20;;;;;;1700802;29;20478;-79
2022/10/14 05:41:00;;;;;;;12.10;10.98;;;14.90;97.20;;;;;;1702304;29;20282;-79
2022/10/14 05:41:51;;;;;;;11.63;10.32;;;14.90;97.20;;;;;;1700943;29;20214;-78
2022/10/14 05:42:43;;;;;;;13.03;10.70;;;14.90;97.20;;;;;;1701064;29;20286;-79
2022/10/14 05:43:34;;;;;;;10.43;9.43;;;14.90;97.20;;;;;;1701012;29;20596;-79
2022/10/14 05:44:25;;;;;;;14.00;10.60;;;14.90;97.20;;;;;;1701165;29;20581;-79
2022/10/14 05:45:16;;;;;;;15.20;10.48;;;14.90;97.20;;;;;;1700752;29;20225;-79
2022/10/14 05:46:08;;;;;;;11.53;10.40;;;14.80;97.20;;;;;;1701092;29;20225;-79
2022/10/14 05:47:00;;;;;;;11.90;10.70;;;14.80;97.20;;;;;;1701157;29;20458;-79
2022/10/14 05:47:52;;;;;;;11.52;10.40;;;14.80;97.20;;;;;;1700619;29;20670;-79
2022/10/14 05:48:43;;;;;;;11.63;10.45;;;14.80;97.20;;;;;;1700270;29;20261;-79
2022/10/14 05:49:35;;;;;;;11.93;10.23;;;14.80;97.20;;;;;;1700272;29;20275;-79
2022/10/14 05:50:25;;;;;;;12.77;10.30;;;14.70;97.20;;;;;;1697909;29;20200;-80
2022/10/14 05:51:20;;;;;;;10.93;10.03;;;14.70;97.20;;;;;;1700365;29;20206;-79
2022/10/14 05:52:10;;;;;;;12.85;9.68;;;14.70;97.20;;;;;;1700166;29;20732;-80
2022/10/14 05:53:02;;;;;;;10.60;9.60;;;14.70;97.20;;;;;;1700745;29;20868;-80
2022/10/14 05:53:53;;;;;;;12.13;10.95;;;14.70;97.20;;;;;;1700473;29;20203;-79
2022/10/14 05:54:44;;;;;;;11.60;10.40;;;14.70;97.20;;;;;;1700338;29;20200;-79
2022/10/14 05:55:35;;;;;;;11.27;9.93;;;14.70;97.20;;;;;;1700656;29;20222;-80
2022/10/14 05:56:27;;;;;;;12.33;9.53;;;14.70;97.20;;;;;;1700762;29;20202;-79
2022/10/14 05:57:18;;;;;;;14.68;10.18;;;14.70;97.20;;;;;;1703025;29;20204;-79
2022/10/14 05:58:09;;;;;;;18.77;11.87;;;14.70;97.20;;;;;;1708449;29;20215;-78
2022/10/14 05:59:00;;;;;;;11.55;10.23;;;14.70;97.20;;;;;;1702987;29;20203;-80
2022/10/14 05:59:52;;;;;;;11.23;9.87;;;14.70;97.20;;;;;;1701572;29;20286;-80
2022/10/14 06:00:43;;;;;;;18.10;10.93;;;14.60;97.20;;;;;;1701489;29;20223;-80
2022/10/14 06:01:35;;;;;;;11.83;9.63;;;14.60;97.20;;;;;;1701437;29;20203;-79
2022/10/14 06:02:27;;;;;;;11.13;9.95;;;14.60;97.20;;;;;;1701321;29;20471;-79
2022/10/14 06:03:19;;;;;;;12.35;10.73;;;14.60;97.20;;;;;;1701597;29;20230;-79
2022/10/14 06:04:16;;;;;;;13.85;10.73;;;14.60;97.20;;;;;;1701675;29;20203;-79
2022/10/14 06:05:08;;;;;;;11.63;10.25;;;14.60;97.20;;;;;;1701099;29;20286;-78
2022/10/14 06:05:59;;;;;;;11.00;10.00;;;14.60;97.20;;;;;;1701770;29;20296;-78
2022/10/14 06:06:50;;;;;;;12.10;10.33;;;14.60;97.20;;;;;;1702590;29;20211;-78
2022/10/14 06:07:41;;;;;;;11.38;10.18;;;14.60;97.20;;;;;;1706082;29;20450;-77
2022/10/14 06:08:33;;;;;;;12.60;10.30;;;14.60;97.20;;;;;;1709585;29;20201;-77
2022/10/14 06:09:23;;;;;;;11.23;9.77;;;14.60;97.20;;;;;;1708590;29;20461;-78
2022/10/14 06:10:15;;;;;;;15.30;10.97;;;14.60;97.20;;;;;;1709275;28;20213;-77
2022/10/14 06:11:06;;;;;;;17.65;10.77;;;14.70;97.20;;;;;;1708940;29;20688;-78
2022/10/14 06:11:58;;;;;;;13.43;10.48;;;14.70;97.20;;;;;;1708837;29;20839;-77
2022/10/14 06:12:49;;;;;;;12.60;9.80;;;14.70;97.20;;;;;;1709012;29;20206;-78
2022/10/14 06:13:41;;;;;;;10.90;9.77;;;14.70;97.20;;;;;;1708836;29;20202;-78
2022/10/14 06:14:31;;;;;;;14.02;11.18;;;14.70;97.20;;;;;;1708895;29;20572;-78
2022/10/14 06:15:23;;;;;;;12.20;10.23;;;14.70;97.20;;;;;;1708963;29;20224;-78
2022/10/14 06:16:14;;;;;;;12.30;10.05;;;14.70;97.20;;;;;;1710177;29;20207;-78
2022/10/14 06:17:06;;;;;;;11.77;10.57;;;14.70;97.20;;;;;;1708829;29;20206;-77
2022/10/14 06:17:58;;;;;;;11.65;10.45;;;14.70;97.20;;;;;;1702866;29;20207;-78
2022/10/14 06:18:50;;;;;;;10.75;9.68;;;14.70;97.20;;;;;;1702366;29;20230;-78
2022/10/14 06:19:40;;;;;;;10.55;9.45;;;14.60;97.20;;;;;;1702251;29;20585;-78
2022/10/14 06:20:32;;;;;;;12.07;10.83;;;14.70;97.20;;;;;;1702188;29;20586;-78
2022/10/14 06:21:23;;;;;;;14.85;9.73;;;14.60;97.20;;;;;;1702525;29;20214;-78
2022/10/14 06:22:15;;;;;;;14.63;9.80;;;14.60;97.20;;;;;;1702509;29;20821;-78
2022/10/14 06:23:05;;;;;;;11.38;9.98;;;14.60;97.20;;;;;;1701912;29;20459;-78
2022/10/14 06:23:57;;;;;;;16.80;10.40;;;14.60;97.20;;;;;;1702421;29;20207;-78
2022/10/14 06:24:48;;;;;;;11.70;10.52;;;14.60;97.20;;;;;;1703253;29;20200;-77
2022/10/14 06:25:39;;;;;;;11.40;10.23;;;14.60;97.20;;;;;;1702221;29;20202;-78
2022/10/14 06:26:30;;;;;;;12.10;10.90;;;14.70;97.20;;;;;;1702148;29;20211;-77
2022/10/14 06:27:22;;;;;;;11.57;9.57;;;14.70;97.20;;;;;;1702255;29;20207;-77
2022/10/14 06:28:13;;;;;;;14.60;9.45;;;14.70;97.20;;;;;;1708485;29;20217;-77
2022/10/14 06:29:04;;;;;;;11.83;10.40;;;14.70;97.20;;;;;;1709124;29;20473;-80
2022/10/14 06:29:55;;;;;;;12.00;9.50;;;14.70;97.20;;;;;;1709197;29;20456;-77
2022/10/14 06:30:49;;;;;;;11.80;9.77;;;14.80;97.20;;;;;;1709394;28;20317;-77
2022/10/14 06:31:40;;;;;;;10.50;9.48;;;14.80;97.20;;;;;;1708547;29;20237;-78
2022/10/14 06:32:32;;;;;;;10.63;9.50;;;14.80;97.20;;;;;;1708649;29;20265;-77
2022/10/14 06:33:26;;;;;;;9.40;8.50;;;14.80;97.20;;;;;;1708543;29;20445;-78
2022/10/14 06:34:21;;;;;;;12.05;8.98;;;14.80;97.20;;;;;;1709158;29;20237;-77
2022/10/14 06:35:12;;;;;;;11.27;8.88;;;14.80;97.20;;;;;;1708711;28;20207;-77
2022/10/14 06:36:05;;;;;;;11.70;9.63;;;14.80;97.20;;;;;;1708651;29;20213;-78
2022/10/14 06:36:56;;;;;;;10.68;9.35;;;14.90;97.20;;;;;;1709023;29;20261;-78
2022/10/14 06:37:48;;;;;;;11.57;9.80;;;14.90;97.20;;;;;;1705019;29;20203;-78
2022/10/14 06:38:39;;;;;;;10.95;9.15;;;14.90;97.20;;;;;;1701966;29;20203;-78
2022/10/14 06:39:30;;;;;;;11.00;9.90;;;14.90;97.20;;;;;;1702019;29;20203;-77
2022/10/14 06:40:21;;;;;;;11.77;9.85;;;14.90;97.20;;;;;;1702286;29;20242;-78
2022/10/14 06:41:13;;;;;;;10.37;8.90;;;14.90;97.20;;;;;;1701978;29;20206;-78
2022/10/14 06:42:04;;;;;;;12.18;9.15;;;14.90;97.20;;;;;;1701841;29;20213;-77
2022/10/14 06:42:57;;;;;;;10.63;9.27;;;14.90;97.20;;;;;;1702166;29;20195;-78
2022/10/14 06:43:48;;;;;;;10.75;8.77;;;15.00;97.20;;;;;;1702065;29;20453;-78
2022/10/14 06:44:40;;;;;;;16.33;10.73;;;15.00;97.20;;;;;;1702035;29;20206;-78
2022/10/14 06:45:30;;;;;;;10.05;8.52;;;15.00;97.20;;;;;;1705275;29;20445;-78
2022/10/14 06:46:24;;;;;;;10.63;9.50;;;15.00;97.20;;;;;;1708727;28;20202;-77
2022/10/14 06:47:14;;;;;;;11.15;8.68;;;15.00;97.20;;;;;;1708812;29;20454;-78
2022/10/14 06:48:06;;;;;;;10.97;9.40;;;15.00;97.20;;;;;;1708862;28;20198;-78
2022/10/14 06:48:58;;;;;;;11.90;10.80;;;15.00;97.20;;;;;;1708805;28;20203;-78
2022/10/14 06:49:50;;;;;;;14.43;10.80;;;15.10;97.20;;;;;;1709321;28;20229;-78
2022/10/14 06:50:41;;;;;;;12.00;10.90;;;15.10;97.20;;;;;;1708265;28;20230;-78
2022/10/14 06:51:33;;;;;;;11.70;10.40;;;15.10;97.20;;;;;;1708836;29;20209;-77
2022/10/14 06:52:24;;;;;;;11.60;8.52;;;15.10;97.20;;;;;;1708324;29;20691;-77
2022/10/14 06:53:16;;;;;;;9.27;8.40;;;15.10;97.20;;;;;;1708511;29;20657;-78
2022/10/14 06:54:07;;;;;;;9.13;7.82;;;15.10;97.20;;;;;;1708522;29;20455;-78
2022/10/14 06:54:59;;;;;;;9.75;8.60;;;15.10;97.20;;;;;;1708879;29;20207;-77
2022/10/14 06:55:56;;;;;;;11.45;8.93;;;15.10;97.20;;;;;;1702817;29;20199;-77
2022/10/14 06:56:48;;;;;;;11.32;9.45;;;15.10;97.20;;;;;;1701988;29;20226;-78
2022/10/14 06:57:39;;;;;;;13.45;9.35;;;15.20;97.20;;;;;;1702169;29;20207;-78
2022/10/14 06:58:30;;;;;;;13.83;11.43;;;15.20;97.20;;;;;;1701711;29;20207;-78
2022/10/14 06:59:21;;;;;;;12.88;10.70;;;15.20;97.20;;;;;;1701932;29;20218;-78
2022/10/14 07:00:14;;;;;;;12.63;11.37;;;15.20;97.20;;;;;;1702288;29;20199;-78
2022/10/14 07:01:06;;;;;;;11.48;10.38;;;15.20;97.20;;;;;;1702029;29;20454;-77
2022/10/14 07:01:58;;;;;;;14.82;10.75;;;15.20;97.20;;;;;;1701529;29;20545;-77
2022/10/14 07:02:49;;;;;;;11.40;9.25;;;15.20;97.20;;;;;;1701748;29;20203;-77
2022/10/14 07:03:40;;;;;;;10.03;9.03;;;15.20;97.20;;;;;;1701861;29;20252;-77
2022/10/14 07:04:32;;;;;;;10.45;8.65;;;15.20;97.20;;;;;;1701784;29;20214;-78
2022/10/14 07:05:25;;;;;;;9.57;8.50;;;15.20;97.20;;;;;;1703578;29;20211;-77
2022/10/14 07:06:16;;;;;;;9.20;8.30;;;15.20;97.20;;;;;;1702701;29;20210;-78
2022/10/14 07:07:08;;;;;;;9.53;8.60;;;15.20;97.20;;;;;;1702018;29;20207;-78
2022/10/14 07:07:59;;;;;;;9.18;7.10;;;15.20;97.20;;;;;;1701851;29;20689;-79
2022/10/14 07:08:50;;;;;;;8.00;7.20;;;15.20;97.20;;;;;;1702319;29;20581;-78
2022/10/14 07:09:41;;;;;;;8.55;7.55;;;15.20;97.20;;;;;;1702075;29;20458;-78
2022/10/14 07:10:33;;;;;;;9.10;7.43;;;15.20;97.20;;;;;;1702289;29;20253;-78
2022/10/14 07:11:24;;;;;;;9.13;8.02;;;15.20;97.20;;;;;;1701906;29;20597;-78
2022/10/14 07:12:16;;;;;;;9.13;8.20;;;15.20;97.20;;;;;;1706635;29;20270;-77
2022/10/14 07:13:06;;;;;;;9.55;7.70;;;15.20;97.20;;;;;;1706167;29;20207;-78
2022/10/14 07:13:58;;;;;;;9.40;7.73;;;15.20;97.20;;;;;;1702681;29;20287;-78
2022/10/14 07:14:49;;;;;;;9.20;8.25;;;15.20;97.20;;;;;;1702505;29;20203;-78
2022/10/14 07:15:41;;;;;;;7.27;6.60;;;15.20;97.20;;;;;;1702682;29;20262;-78
2022/10/14 07:16:32;;;;;;;13.00;8.18;;;15.20;97.20;;;;;;1708718;28;20668;-78
2022/10/14 07:17:23;;;;;;;10.88;8.77;;;15.20;97.20;;;;;;1709012;29;20198;-78
2022/10/14 07:18:15;;;;;;;10.48;7.60;;;15.20;97.20;;;;;;1709257;28;20587;-77
2022/10/14 07:19:06;;;;;;;8.60;7.80;;;15.10;97.20;;;;;;1708723;28;20229;-78
2022/10/14 07:19:58;;;;;;;8.30;6.97;;;15.10;97.20;;;;;;1708720;29;20206;-78
2022/10/14 07:20:50;;;;;;;8.75;7.75;;;15.10;97.20;;;;;;1709924;28;20770;-78
2022/10/14 07:21:41;;;;;;;7.85;7.05;;;15.20;97.20;;;;;;1708486;29;20214;-78
2022/10/14 07:22:35;;;;;;;8.07;7.28;;;15.20;97.20;;;;;;1709059;29;20277;-78
2022/10/14 07:23:25;;;;;;;9.85;7.55;;;15.20;97.20;;;;;;1710509;29;20269;-78
2022/10/14 07:24:17;;;;;;;10.00;7.73;;;15.20;97.20;;;;;;1708679;28;20210;-77
2022/10/14 07:25:09;;;;;;;7.55;6.85;;;15.20;97.20;;;;;;1708403;29;20664;-78
2022/10/14 07:26:01;;;;;;;10.00;7.90;;;15.20;97.20;;;;;;1704931;28;20211;-78
2022/10/14 07:26:52;;;;;;;9.85;7.05;;;15.20;97.20;;;;;;1701382;29;20207;-78
2022/10/14 07:27:44;;;;;;;7.65;6.72;;;15.20;97.20;;;;;;1701606;29;20199;-77
2022/10/14 07:28:35;;;;;;;9.85;7.38;;;15.20;97.20;;;;;;1701592;29;20230;-78
2022/10/14 07:29:27;;;;;;;7.30;6.60;;;15.20;97.20;;;;;;1701453;29;20282;-78
2022/10/14 07:30:18;;;;;;;8.10;7.25;;;15.20;97.20;;;;;;1701561;29;20584;-77
2022/10/14 07:31:11;;;;;;;8.80;7.85;;;15.30;97.20;;;;;;1701461;29;20223;-76
2022/10/14 07:32:03;;;;;;;8.20;7.43;;;15.30;97.20;;;;;;1701167;29;20211;-77
2022/10/14 07:32:55;;;;;;;10.80;7.97;;;15.30;97.20;;;;;;1701620;29;20238;-78
2022/10/14 07:33:46;;;;;;;8.30;7.50;;;15.30;97.20;;;;;;1701531;29;20210;-78
2022/10/14 07:34:38;;;;;;;10.17;7.50;;;15.30;97.20;;;;;;1701363;29;20213;-77
2022/10/14 07:35:30;;;;;;;6.95;6.00;;;15.30;97.20;;;;;;1702033;29;20210;-78
2022/10/14 07:36:21;;;;;;;8.88;7.10;;;15.30;97.20;;;;;;1706031;29;20685;-78
2022/10/14 07:37:12;;;;;;;7.32;6.63;;;15.30;97.20;;;;;;1708204;29;20731;-79
2022/10/14 07:38:04;;;;;;;10.60;6.17;;;15.30;97.20;;;;;;1708202;29;20681;-78
2022/10/14 07:38:55;;;;;;;10.38;6.45;;;15.30;97.20;;;;;;1708019;29;20217;-79
2022/10/14 07:39:46;;;;;;;9.53;6.40;;;15.30;97.20;;;;;;1708234;29;20217;-78
2022/10/14 07:40:37;;;;;;;7.38;6.68;;;15.30;97.20;;;;;;1707791;28;20752;-76
2022/10/14 07:41:29;;;;;;;7.10;6.30;;;15.30;97.20;;;;;;1707828;29;20691;-77
2022/10/14 07:42:20;;;;;;;8.25;5.85;;;15.30;97.20;;;;;;1707488;29;20211;-76
2022/10/14 07:43:11;;;;;;;8.93;5.30;;;15.30;97.20;;;;;;1707865;29;20206;-77
2022/10/14 07:44:07;;;;;;;7.60;6.05;;;15.30;97.20;;;;;;1707841;29;20209;-76
2022/10/14 07:44:59;;;;;;;6.90;6.20;;;15.30;97.20;;;;;;1707854;28;20664;-76
2022/10/14 07:45:50;;;;;;;8.13;6.28;;;15.30;97.20;;;;;;1707136;29;20199;-76
2022/10/14 07:46:44;;;;;;;7.07;6.00;;;15.30;97.20;;;;;;1707100;29;20198;-77
2022/10/14 07:47:35;;;;;;;7.10;6.03;;;15.30;97.20;;;;;;1707792;29;20446;-76
2022/10/14 07:48:29;;;;;;;7.10;5.50;;;15.30;97.20;;;;;;1707868;29;20206;-76
2022/10/14 07:49:21;;;;;;;8.43;5.60;;;15.30;97.20;;;;;;1707743;29;20203;-76
2022/10/14 07:50:13;;;;;;;9.35;5.93;;;15.30;97.20;;;;;;1707766;28;20205;-76
2022/10/14 07:51:05;;;;;;;8.27;6.40;;;15.30;97.20;;;;;;1707799;29;20217;-75
2022/10/14 07:51:58;;;;;;;6.13;5.53;;;15.30;97.20;;;;;;1707451;29;20727;-77
2022/10/14 07:52:48;;;;;;;8.05;5.97;;;15.30;97.20;;;;;;1707746;29;20211;-76
2022/10/14 07:53:40;;;;;;;8.13;5.90;;;15.30;97.20;;;;;;1707845;29;20669;-77
2022/10/14 07:54:31;;;;;;;7.45;6.75;;;15.30;97.20;;;;;;1707827;29;20586;-76
2022/10/14 07:55:23;;;;;;;7.10;6.45;;;15.30;97.20;;;;;;1707784;29;20665;-76
2022/10/14 07:56:14;;;;;;;7.20;5.90;;;15.30;97.20;;;;;;1703962;29;20200;-77
2022/10/14 07:57:06;;;;;;;7.37;5.43;;;15.30;97.20;;;;;;1701125;29;20207;-77
2022/10/14 07:57:56;;;;;;;11.55;6.28;;;15.30;97.20;;;;;;1701064;29;20219;-76
2022/10/14 07:58:48;;;;;;;7.57;5.97;;;15.30;97.20;;;;;;1701152;29;20203;-77
2022/10/14 07:59:39;;;;;;;7.75;5.88;;;15.30;97.20;;;;;;1701047;29;20231;-76
2022/10/14 08:00:31;;;;;;;7.50;6.03;;;15.40;97.20;;;;;;1701127;29;20206;-76
2022/10/14 08:01:23;;;;;;;7.82;5.90;;;15.40;97.20;;;;;;1701690;29;20695;-79
2022/10/14 08:02:15;;;;;;;6.07;5.47;;;15.40;97.20;;;;;;1701333;29;20207;-78
2022/10/14 08:03:05;;;;;;;7.07;5.90;;;15.40;97.20;;;;;;1701479;29;20217;-79
2022/10/14 08:03:57;;;;;;;10.43;6.10;;;15.40;97.20;;;;;;1701690;29;20213;-79
2022/10/14 08:04:51;;;;;;;7.72;6.22;;;15.40;97.20;;;;;;1701450;29;20207;-78
2022/10/14 08:05:43;;;;;;;7.50;5.30;;;15.40;97.20;;;;;;1701405;29;20385;-79
2022/10/14 08:06:36;;;;;;;7.63;5.57;;;15.40;97.20;;;;;;1707315;29;20567;-78
2022/10/14 08:07:28;;;;;;;6.70;6.10;;;15.40;97.20;;;;;;1708246;29;20230;-79
2022/10/14 08:08:22;;;;;;;8.05;5.90;;;15.40;97.20;;;;;;1708217;29;20319;-78
2022/10/14 08:09:14;;;;;;;6.75;6.05;;;15.40;97.20;;;;;;1708337;29;20199;-79
2022/10/14 08:10:05;;;;;;;9.65;6.35;;;15.50;97.20;;;;;;1707983;29;20584;-79
2022/10/14 08:11:01;;;;;;;7.30;5.53;;;15.50;97.20;;;;;;1710482;28;20240;-79
2022/10/14 08:11:52;;;;;;;7.85;5.38;;;15.50;97.20;;;;;;1713596;29;20458;-79
2022/10/14 08:12:45;;;;;;;7.20;5.20;;;15.50;97.20;;;;;;1708819;29;20252;-79
2022/10/14 08:13:36;;;;;;;5.63;5.10;;;15.50;97.20;;;;;;1708626;29;20649;-79
2022/10/14 08:14:28;;;;;;;7.38;5.90;;;15.50;97.20;;;;;;1708782;29;20277;-79
2022/10/14 08:15:19;;;;;;;8.13;5.90;;;15.50;97.20;;;;;;1708268;29;20210;-78
2022/10/14 08:16:16;;;;;;;6.33;5.67;;;15.50;97.20;;;;;;1705420;29;20191;-79
2022/10/14 08:17:08;;;;;;;7.20;5.55;;;15.50;97.20;;;;;;1701406;29;20207;-79
2022/10/14 08:17:58;;;;;;;5.90;4.97;;;15.50;97.20;;;;;;1701464;29;20262;-79
2022/10/14 08:18:51;;;;;;;6.70;5.83;;;15.50;97.20;;;;;;1701606;29;20195;-78
2022/10/14 08:19:42;;;;;;;7.97;5.40;;;15.50;97.20;;;;;;1701379;29;20227;-79
2022/10/14 08:20:35;;;;;;;7.33;5.20;;;15.50;97.20;;;;;;1701913;29;20231;-79
2022/10/14 08:21:26;;;;;;;9.50;5.68;;;15.50;97.20;;;;;;1702107;29;20740;-79
2022/10/14 08:22:19;;;;;;;8.45;5.50;;;15.50;97.20;;;;;;1701744;29;20584;-79
2022/10/14 08:23:11;;;;;;;9.40;5.78;;;15.40;97.20;;;;;;1701783;29;20218;-80
2022/10/14 08:24:04;;;;;;;10.82;5.40;;;15.40;97.20;;;;;;1702010;29;20286;-79
2022/10/14 08:24:54;;;;;;;7.65;5.35;;;15.40;97.20;;;;;;1701722;29;20203;-79
2022/10/14 08:25:48;;;;;;;5.80;5.00;;;15.40;97.20;;;;;;1702027;29;20203;-78
2022/10/14 08:26:40;;;;;;;6.00;5.35;;;15.40;97.20;;;;;;1707876;29;20239;-78
2022/10/14 08:27:31;;;;;;;6.15;5.60;;;15.50;97.20;;;;;;1708333;29;20664;-79
2022/10/14 08:28:22;;;;;;;5.78;5.28;;;15.40;97.20;;;;;;1707973;28;20221;-79
2022/10/14 08:29:14;;;;;;;7.70;5.33;;;15.50;97.20;;;;;;1708409;29;20285;-79
2022/10/14 08:30:06;;;;;;;7.88;5.30;;;15.50;97.20;;;;;;1708759;29;20454;-78
2022/10/14 08:30:58;;;;;;;6.85;5.60;;;15.50;97.20;;;;;;1708209;28;20313;-78
2022/10/14 08:31:49;;;;;;;7.13;5.78;;;15.50;97.20;;;;;;1708119;29;20210;-78
2022/10/14 08:32:40;;;;;;;5.97;5.38;;;15.50;97.20;;;;;;1708539;29;20234;-79
2022/10/14 08:33:31;;;;;;;6.55;5.63;;;15.50;97.20;;;;;;1708460;29;20691;-78
2022/10/14 08:34:23;;;;;;;6.40;5.70;;;15.50;97.20;;;;;;1708661;29;20574;-78
2022/10/14 08:35:14;;;;;;;7.43;5.70;;;15.50;97.20;;;;;;1708484;29;20238;-79
2022/10/14 08:36:06;;;;;;;10.40;6.20;;;15.50;97.20;;;;;;1706515;29;20207;-79
2022/10/14 08:36:57;;;;;;;7.38;5.57;;;15.60;97.20;;;;;;1701934;29;20229;-79
2022/10/14 08:37:57;;;;;;;6.70;5.20;;;15.60;97.20;;;;;;1701292;29;20226;-78
2022/10/14 08:38:50;;;;;;;8.35;5.30;;;15.60;97.20;;;;;;1701365;29;20296;-78
2022/10/14 08:39:42;;;;;;;5.43;4.93;;;15.60;97.20;;;;;;1701611;29;20229;-78
2022/10/14 08:40:45;;;;;;;8.13;5.75;;;15.60;97.20;;;;;;1701516;29;20230;-79
2022/10/14 08:42:17;;;;;;;7.93;5.50;;;15.60;97.20;;;;;;1701611;29;20211;-79
2022/10/14 08:43:20;;;;;;;6.72;5.22;;;15.70;97.20;;;;;;1701290;29;20218;-79
2022/10/14 08:44:17;;;;;;;7.18;6.00;;;15.70;97.20;;;;;;1701674;29;20222;-78
2022/10/14 08:45:14;;;;;;;8.05;5.38;;;15.70;97.20;;;;;;1701673;29;20300;-78
2022/10/14 08:46:12;;;;;;;5.57;5.07;;;15.70;97.20;;;;;;1701684;29;20203;-79
2022/10/14 08:47:08;;;;;;;5.68;5.18;;;15.70;97.20;;;;;;1708323;29;20221;-78
2022/10/14 08:48:02;;;;;;;5.43;5.00;;;15.70;97.20;;;;;;1708071;28;20218;-79
2022/10/14 08:49:02;;;;;;;6.18;5.57;;;15.70;97.20;;;;;;1708765;29;20199;-78
2022/10/14 08:50:01;;;;;;;8.18;5.05;;;15.70;97.20;;;;;;1708650;28;20254;-78
2022/10/14 08:50:55;;;;;;;6.68;6.07;;;15.80;97.20;;;;;;1708214;28;20226;-78
2022/10/14 08:51:53;;;;;;;6.13;5.43;;;15.80;97.20;;;;;;1708655;28;20257;-79
2022/10/14 08:52:49;;;;;;;6.15;5.60;;;15.80;97.20;;;;;;1708266;29;20221;-79
2022/10/14 08:53:45;;;;;;;8.32;5.80;;;15.80;97.20;;;;;;1707832;28;20277;-79
2022/10/14 08:54:41;;;;;;;5.90;5.30;;;15.80;97.20;;;;;;1708272;29;20218;-78
2022/10/14 08:55:37;;;;;;;6.32;5.20;;;15.80;97.20;;;;;;1708017;29;20198;-79
2022/10/14 08:56:28;;;;;;;6.28;5.00;;;15.80;97.20;;;;;;1704377;29;20207;-78
2022/10/14 08:57:21;;;;;;;7.35;5.20;;;15.80;97.20;;;;;;1702342;29;20227;-79
2022/10/14 08:58:17;;;;;;;7.07;5.82;;;15.80;97.20;;;;;;1702709;29;20210;-79
2022/10/14 08:59:14;;;;;;;8.18;5.60;;;15.80;97.20;;;;;;1703642;29;20685;-79
2022/10/14 09:00:08;;;;;;;4.93;4.32;;;15.80;97.20;;;;;;1701838;29;20227;-78
2022/10/14 09:01:10;;;;;;;5.93;4.90;;;15.80;97.20;;;;;;1701080;29;20694;-80
2022/10/14 09:02:10;;;;;;;5.10;4.68;;;15.90;97.20;;;;;;1700900;29;20212;-79
2022/10/14 09:03:11;;;;;;;6.53;5.40;;;15.90;97.20;;;;;;1701064;29;20274;-79
2022/10/14 09:04:05;;;;;;;8.02;5.10;;;15.80;97.20;;;;;;1701028;29;20208;-79
2022/10/14 09:05:00;;;;;;;6.88;4.28;;;15.80;97.20;;;;;;1701127;29;20235;-79
2022/10/14 09:05:57;;;;;;;5.07;4.63;;;15.80;97.20;;;;;;1701141;29;20567;-78
2022/10/14 09:06:50;;;;;;;7.15;5.25;;;15.80;97.20;;;;;;1706808;29;20195;-79
2022/10/14 09:07:43;;;;;;;5.95;4.95;;;15.80;97.20;;;;;;1708045;29;20203;-79
2022/10/14 09:08:40;;;;;;;5.13;4.63;;;15.90;97.20;;;;;;1707702;29;20206;-79
2022/10/14 09:09:39;;;;;;;6.30;5.30;;;15.90;97.20;;;;;;1707849;28;20203;-79
2022/10/14 09:10:35;;;;;;;7.18;4.82;;;15.90;97.20;;;;;;1708119;28;20265;-78
2022/10/14 09:11:27;;;;;;;5.40;4.68;;;15.90;97.20;;;;;;1707847;29;20207;-78
2022/10/14 09:12:23;;;;;;;13.98;5.88;;;15.90;97.20;;;;;;1707778;29;20568;-78
2022/10/14 09:13:28;;;;;;;6.47;4.68;;;16.00;97.20;;;;;;1707476;29;20206;-78
2022/10/14 09:14:23;;;;;;;6.95;5.50;;;16.00;97.20;;;;;;1707622;29;20587;-79
2022/10/14 09:15:21;;;;;;;6.85;5.18;;;16.00;97.20;;;;;;1707971;29;20198;-78
2022/10/14 09:16:17;;;;;;;5.40;4.90;;;16.00;97.20;;;;;;1706525;29;20207;-79
2022/10/14 09:17:16;;;;;;;6.35;5.53;;;16.00;97.20;;;;;;1701018;29;20230;-77
2022/10/14 09:18:23;;;;;;;6.75;4.97;;;16.00;97.20;;;;;;1701194;29;20218;-79
2022/10/14 09:19:22;;;;;;;6.60;5.60;;;16.00;97.20;;;;;;1701502;29;20258;-78
2022/10/14 09:20:18;;;;;;;4.88;4.45;;;16.00;97.20;;;;;;1701265;29;20249;-78
2022/10/14 09:21:20;;;;;;;6.80;5.43;;;16.10;97.20;;;;;;1701233;29;20229;-78
2022/10/14 09:22:14;;;;;;;6.63;5.32;;;16.10;97.20;;;;;;1700986;29;20286;-78
2022/10/14 09:23:14;;;;;;;10.20;5.40;;;16.10;97.20;;;;;;1701386;29;20215;-79
2022/10/14 09:24:12;;;;;;;6.57;5.55;;;16.10;97.20;;;;;;1701182;29;20203;-79
2022/10/14 09:25:11;;;;;;;6.03;5.30;;;16.10;97.20;;;;;;1701426;29;20207;-78
2022/10/14 09:26:08;;;;;;;5.30;4.80;;;16.20;97.20;;;;;;1701456;29;20226;-79
2022/10/14 09:27:03;;;;;;;7.18;6.03;;;16.20;97.20;;;;;;1694835;29;20215;-78
2022/10/14 09:27:54;;;;;;;7.72;5.32;;;16.20;97.20;;;;;;1694779;29;20227;-79
2022/10/14 09:28:47;;;;;;;6.70;5.50;;;16.30;97.20;;;;;;1694984;29;20211;-78
2022/10/14 09:29:46;;;;;;;17.33;5.03;;;16.30;97.20;;;;;;1694708;29;20204;-79
2022/10/14 09:30:39;;;;;;;15.07;5.70;;;16.30;97.20;;;;;;1695489;29;20270;-79
2022/10/14 09:31:31;;;;;;;5.72;5.22;;;16.40;97.20;;;;;;1695107;29;20267;-79